sensor_id;sensor_type;location;lat;lon;timestamp;pressure;altitude;pressure_sealevel;temperature;humidity
65376;BME280;51976;47.332;9.404;2022-10-30T00:01:17;93447.69;;;19.07;53.62
65376;BME280;51976;47.332;9.404;2022-10-30T00:03:42;93452.34;;;19.06;53.48
65376;BME280;51976;47.332;9.404;2022-10-30T00:06:07;93451.56;;;19.06;53.53
65376;BME280;51976;47.332;9.404;2022-10-30T00:08:33;93444.47;;;19.05;53.36
65376;BME280;51976;47.332;9.404;2022-10-30T00:11:10;93420.03;;;18.91;53.78
65376;BME280;51976;47.332;9.404;2022-10-30T00:13:36;93445.28;;;19.05;53.58
65376;BME280;51976;47.332;9.404;2022-10-30T00:16:04;93440.94;;;19.04;53.67
65376;BME280;51976;47.332;9.404;2022-10-30T00:18:30;93446.09;;;19.06;53.49
65376;BME280;51976;47.332;9.404;2022-10-30T00:20:55;93440.13;;;19.04;53.53
65376;BME280;51976;47.332;9.404;2022-10-30T00:23:21;93445.59;;;19.04;53.83
65376;BME280;51976;47.332;9.404;2022-10-30T00:25:46;93439.81;;;19.05;53.65
65376;BME280;51976;47.332;9.404;2022-10-30T00:28:12;93441.44;;;19.06;53.39
65376;BME280;51976;47.332;9.404;2022-10-30T00:30:37;93438.84;;;19.01;53.53
65376;BME280;51976;47.332;9.404;2022-10-30T00:33:05;93444.78;;;19.03;53.63
65376;BME280;51976;47.332;9.404;2022-10-30T00:35:31;93439.00;;;19.05;53.37
65376;BME280;51976;47.332;9.404;2022-10-30T00:37:56;93433.88;;;19.03;53.45
65376;BME280;51976;47.332;9.404;2022-10-30T00:40:22;93441.25;;;19.03;53.62
65376;BME280;51976;47.332;9.404;2022-10-30T00:42:47;93443.81;;;18.99;53.62
65376;BME280;51976;47.332;9.404;2022-10-30T00:45:15;93434.50;;;19.00;53.58
65376;BME280;51976;47.332;9.404;2022-10-30T00:47:44;93438.84;;;19.01;53.57
65376;BME280;51976;47.332;9.404;2022-10-30T00:50:25;93444.31;;;19.01;53.63
65376;BME280;51976;47.332;9.404;2022-10-30T00:52:55;93448.16;;;19.00;53.60
65376;BME280;51976;47.332;9.404;2022-10-30T00:55:26;93447.53;;;19.03;53.64
65376;BME280;51976;47.332;9.404;2022-10-30T00:57:54;93443.03;;;18.99;53.56
65376;BME280;51976;47.332;9.404;2022-10-30T01:00:21;93439.97;;;19.00;53.69
65376;BME280;51976;47.332;9.404;2022-10-30T01:02:49;93435.63;;;18.99;53.41
65376;BME280;51976;47.332;9.404;2022-10-30T01:05:17;93440.28;;;18.99;53.61
65376;BME280;51976;47.332;9.404;2022-10-30T01:07:44;93446.56;;;18.99;53.32
65376;BME280;51976;47.332;9.404;2022-10-30T01:10:11;93435.13;;;18.97;53.57
65376;BME280;51976;47.332;9.404;2022-10-30T01:12:37;93430.81;;;18.96;53.52
65376;BME280;51976;47.332;9.404;2022-10-30T01:15:03;93432.41;;;18.97;53.58
65376;BME280;51976;47.332;9.404;2022-10-30T01:18:01;93439.00;;;18.96;53.44
65376;BME280;51976;47.332;9.404;2022-10-30T01:20:50;93436.75;;;18.98;53.55
65376;BME280;51976;47.332;9.404;2022-10-30T01:23:34;93434.66;;;18.95;53.44
65376;BME280;51976;47.332;9.404;2022-10-30T01:26:25;93431.91;;;18.95;53.31
65376;BME280;51976;47.332;9.404;2022-10-30T01:29:25;93428.38;;;18.94;53.30
65376;BME280;51976;47.332;9.404;2022-10-30T01:32:30;93428.69;;;18.93;53.42
65376;BME280;51976;47.332;9.404;2022-10-30T01:35:19;93428.38;;;18.94;53.51
65376;BME280;51976;47.332;9.404;2022-10-30T01:37:58;93436.91;;;18.93;53.26
65376;BME280;51976;47.332;9.404;2022-10-30T01:40:26;93433.03;;;18.94;53.52
65376;BME280;51976;47.332;9.404;2022-10-30T01:42:54;93430.31;;;18.94;53.71
65376;BME280;51976;47.332;9.404;2022-10-30T01:45:36;93430.00;;;18.96;53.26
65376;BME280;51976;47.332;9.404;2022-10-30T01:48:22;93430.63;;;18.92;53.37
65376;BME280;51976;47.332;9.404;2022-10-30T01:51:26;93427.09;;;18.92;53.47
65376;BME280;51976;47.332;9.404;2022-10-30T01:54:14;93421.00;;;18.95;53.42
65376;BME280;51976;47.332;9.404;2022-10-30T01:57:06;93424.34;;;18.92;53.56
65376;BME280;51976;47.332;9.404;2022-10-30T01:59:44;93421.94;;;18.90;53.47
65376;BME280;51976;47.332;9.404;2022-10-30T02:02:11;93420.34;;;18.89;53.19
65376;BME280;51976;47.332;9.404;2022-10-30T02:04:37;93425.47;;;18.91;53.44
65376;BME280;51976;47.332;9.404;2022-10-30T02:07:03;93423.38;;;18.88;53.61
65376;BME280;51976;47.332;9.404;2022-10-30T02:09:29;93419.53;;;18.89;53.25
65376;BME280;51976;47.332;9.404;2022-10-30T02:11:55;93417.91;;;18.88;53.29
65376;BME280;51976;47.332;9.404;2022-10-30T02:14:25;93408.59;;;18.89;53.51
65376;BME280;51976;47.332;9.404;2022-10-30T02:16:53;93406.34;;;18.91;53.27
65376;BME280;51976;47.332;9.404;2022-10-30T02:19:21;93412.94;;;18.90;53.42
65376;BME280;51976;47.332;9.404;2022-10-30T02:21:47;93415.69;;;18.90;53.43
65376;BME280;51976;47.332;9.404;2022-10-30T02:24:12;93409.41;;;18.89;53.52
65376;BME280;51976;47.332;9.404;2022-10-30T02:26:37;93414.06;;;18.89;53.33
65376;BME280;51976;47.332;9.404;2022-10-30T02:29:03;93405.88;;;18.89;53.33
65376;BME280;51976;47.332;9.404;2022-10-30T02:31:28;93410.88;;;18.87;53.23
65376;BME280;51976;47.332;9.404;2022-10-30T02:33:54;93401.53;;;18.88;53.46
65376;BME280;51976;47.332;9.404;2022-10-30T02:36:19;93405.41;;;18.87;53.33
65376;BME280;51976;47.332;9.404;2022-10-30T02:38:45;93401.69;;;18.91;53.32
65376;BME280;51976;47.332;9.404;2022-10-30T02:41:10;93391.41;;;18.88;53.35
65376;BME280;51976;47.332;9.404;2022-10-30T02:43:36;93390.59;;;18.88;53.38
65376;BME280;51976;47.332;9.404;2022-10-30T02:46:02;93387.06;;;18.87;53.23
65376;BME280;51976;47.332;9.404;2022-10-30T02:48:30;93382.28;;;18.84;53.50
65376;BME280;51976;47.332;9.404;2022-10-30T02:51:00;93390.47;;;18.84;53.11
65376;BME280;51976;47.332;9.404;2022-10-30T02:53:26;93380.66;;;18.83;53.26
65376;BME280;51976;47.332;9.404;2022-10-30T02:55:51;93392.53;;;18.87;53.24
65376;BME280;51976;47.332;9.404;2022-10-30T02:58:17;93381.59;;;18.87;53.47
65376;BME280;51976;47.332;9.404;2022-10-30T03:00:42;93382.41;;;18.88;53.32
65376;BME280;51976;47.332;9.404;2022-10-30T03:03:07;93379.22;;;18.86;53.00
65376;BME280;51976;47.332;9.404;2022-10-30T03:05:33;93383.88;;;18.85;53.01
65376;BME280;51976;47.332;9.404;2022-10-30T03:07:58;93382.28;;;18.84;52.82
65376;BME280;51976;47.332;9.404;2022-10-30T03:10:23;93373.28;;;18.84;53.14
65376;BME280;51976;47.332;9.404;2022-10-30T03:12:49;93379.06;;;18.82;53.35
65376;BME280;51976;47.332;9.404;2022-10-30T03:15:14;93377.63;;;18.85;53.34
65376;BME280;51976;47.332;9.404;2022-10-30T03:17:40;93371.97;;;18.81;53.13
65376;BME280;51976;47.332;9.404;2022-10-30T03:20:05;93385.31;;;18.83;53.26
65376;BME280;51976;47.332;9.404;2022-10-30T03:22:31;93369.75;;;18.83;53.08
65376;BME280;51976;47.332;9.404;2022-10-30T03:24:56;93369.75;;;18.83;53.11
65376;BME280;51976;47.332;9.404;2022-10-30T03:27:22;93369.25;;;18.81;53.18
65376;BME280;51976;47.332;9.404;2022-10-30T03:29:47;93365.09;;;18.84;53.19
65376;BME280;51976;47.332;9.404;2022-10-30T03:32:12;93360.75;;;18.83;53.34
65376;BME280;51976;47.332;9.404;2022-10-30T03:34:38;93370.88;;;18.82;53.11
65376;BME280;51976;47.332;9.404;2022-10-30T03:37:04;93370.88;;;18.82;53.16
65376;BME280;51976;47.332;9.404;2022-10-30T03:39:30;93371.03;;;18.86;52.97
65376;BME280;51976;47.332;9.404;2022-10-30T03:41:55;93376.81;;;18.84;53.17
65376;BME280;51976;47.332;9.404;2022-10-30T03:44:21;93373.28;;;18.84;53.00
65376;BME280;51976;47.332;9.404;2022-10-30T03:46:46;93376.31;;;18.82;53.20
65376;BME280;51976;47.332;9.404;2022-10-30T03:49:12;93374.09;;;18.84;53.05
65376;BME280;51976;47.332;9.404;2022-10-30T03:51:37;93373.28;;;18.84;52.84
65376;BME280;51976;47.332;9.404;2022-10-30T03:54:02;93366.53;;;18.81;52.99
65376;BME280;51976;47.332;9.404;2022-10-30T03:56:28;93373.59;;;18.82;53.08
65376;BME280;51976;47.332;9.404;2022-10-30T03:58:53;93368.13;;;18.82;53.24
65376;BME280;51976;47.332;9.404;2022-10-30T04:01:20;93367.31;;;18.82;52.86
65376;BME280;51976;47.332;9.404;2022-10-30T04:03:45;93361.88;;;18.82;53.20
65376;BME280;51976;47.332;9.404;2022-10-30T04:06:10;93366.53;;;18.81;53.11
65376;BME280;51976;47.332;9.404;2022-10-30T04:08:36;93370.88;;;18.82;53.21
65376;BME280;51976;47.332;9.404;2022-10-30T04:11:01;93373.09;;;18.80;52.93
65376;BME280;51976;47.332;9.404;2022-10-30T04:13:27;93366.19;;;18.83;53.06
65376;BME280;51976;47.332;9.404;2022-10-30T04:15:52;93368.44;;;18.81;53.23
65376;BME280;51976;47.332;9.404;2022-10-30T04:18:18;93368.44;;;18.81;52.88
65376;BME280;51976;47.332;9.404;2022-10-30T04:20:44;93364.44;;;18.78;52.96
65376;BME280;51976;47.332;9.404;2022-10-30T04:23:13;93362.50;;;18.79;52.95
65376;BME280;51976;47.332;9.404;2022-10-30T04:25:39;93363.47;;;18.83;52.88
65376;BME280;51976;47.332;9.404;2022-10-30T04:28:05;93365.22;;;18.79;53.09
65376;BME280;51976;47.332;9.404;2022-10-30T04:30:30;93362.81;;;18.77;53.01
65376;BME280;51976;47.332;9.404;2022-10-30T04:33:00;93360.75;;;18.83;52.91
65376;BME280;51976;47.332;9.404;2022-10-30T04:35:28;93362.19;;;18.80;53.01
65376;BME280;51976;47.332;9.404;2022-10-30T04:37:56;93364.44;;;18.78;52.92
65376;BME280;51976;47.332;9.404;2022-10-30T04:40:22;93364.44;;;18.78;52.94
65376;BME280;51976;47.332;9.404;2022-10-30T04:42:48;93367.16;;;18.78;52.98
65376;BME280;51976;47.332;9.404;2022-10-30T04:45:14;93365.56;;;18.77;53.03
65376;BME280;51976;47.332;9.404;2022-10-30T04:47:40;93364.09;;;18.80;52.75
65376;BME280;51976;47.332;9.404;2022-10-30T04:50:05;93359.28;;;18.77;52.84
65376;BME280;51976;47.332;9.404;2022-10-30T04:52:31;93362.81;;;18.77;52.80
65376;BME280;51976;47.332;9.404;2022-10-30T04:54:56;93356.88;;;18.75;53.24
65376;BME280;51976;47.332;9.404;2022-10-30T04:57:22;93354.47;;;18.74;53.02
65376;BME280;51976;47.332;9.404;2022-10-30T04:59:47;93351.41;;;18.75;52.80
65376;BME280;51976;47.332;9.404;2022-10-30T05:02:13;93353.34;;;18.75;53.13
65376;BME280;51976;47.332;9.404;2022-10-30T05:04:38;93347.56;;;18.76;53.06
65376;BME280;51976;47.332;9.404;2022-10-30T05:07:03;93349.97;;;18.78;52.95
65376;BME280;51976;47.332;9.404;2022-10-30T05:09:29;93347.06;;;18.74;53.19
65376;BME280;51976;47.332;9.404;2022-10-30T05:11:55;93348.50;;;18.72;53.18
65376;BME280;51976;47.332;9.404;2022-10-30T05:14:20;93347.38;;;18.73;53.07
65376;BME280;51976;47.332;9.404;2022-10-30T05:16:45;93340.81;;;18.74;53.10
65376;BME280;51976;47.332;9.404;2022-10-30T05:19:11;93343.84;;;18.72;52.77
65376;BME280;51976;47.332;9.404;2022-10-30T05:21:36;93337.25;;;18.73;52.77
65376;BME280;51976;47.332;9.404;2022-10-30T05:24:02;93342.41;;;18.75;52.96
65376;BME280;51976;47.332;9.404;2022-10-30T05:26:27;93338.56;;;18.76;53.01
65376;BME280;51976;47.332;9.404;2022-10-30T05:28:53;93344.66;;;18.73;53.05
65376;BME280;51976;47.332;9.404;2022-10-30T05:31:18;93338.06;;;18.74;53.03
65376;BME280;51976;47.332;9.404;2022-10-30T05:33:43;93338.38;;;18.72;53.05
65376;BME280;51976;47.332;9.404;2022-10-30T05:36:09;93330.69;;;18.74;52.97
65376;BME280;51976;47.332;9.404;2022-10-30T05:38:34;93346.25;;;18.74;52.79
65376;BME280;51976;47.332;9.404;2022-10-30T05:40:59;93350.91;;;18.73;53.04
65376;BME280;51976;47.332;9.404;2022-10-30T05:43:25;93353.16;;;18.71;53.17
65376;BME280;51976;47.332;9.404;2022-10-30T05:45:50;93349.31;;;18.72;53.30
65376;BME280;51976;47.332;9.404;2022-10-30T05:48:16;93352.38;;;18.71;52.80
65376;BME280;51976;47.332;9.404;2022-10-30T05:50:41;93350.75;;;18.70;52.99
65376;BME280;51976;47.332;9.404;2022-10-30T05:53:07;93352.38;;;18.71;52.81
65376;BME280;51976;47.332;9.404;2022-10-30T05:55:33;93348.50;;;18.72;53.05
65376;BME280;51976;47.332;9.404;2022-10-30T05:58:00;93350.13;;;18.73;52.77
65376;BME280;51976;47.332;9.404;2022-10-30T06:00:36;93358.31;;;18.73;52.82
65376;BME280;51976;47.332;9.404;2022-10-30T06:03:06;93358.31;;;18.73;53.01
65376;BME280;51976;47.332;9.404;2022-10-30T06:05:34;93357.03;;;18.70;52.96
65376;BME280;51976;47.332;9.404;2022-10-30T06:08:00;93351.88;;;18.69;52.80
65376;BME280;51976;47.332;9.404;2022-10-30T06:10:27;93351.88;;;18.69;52.86
65376;BME280;51976;47.332;9.404;2022-10-30T06:12:55;93356.84;;;18.67;52.81
65376;BME280;51976;47.332;9.404;2022-10-30T06:15:20;93362.31;;;18.67;52.73
65376;BME280;51976;47.332;9.404;2022-10-30T06:17:46;93364.72;;;18.68;52.81
65376;BME280;51976;47.332;9.404;2022-10-30T06:20:12;93362.31;;;18.67;52.83
65376;BME280;51976;47.332;9.404;2022-10-30T06:22:37;93363.13;;;18.67;52.78
65376;BME280;51976;47.332;9.404;2022-10-30T06:25:03;93361.19;;;18.68;52.99
65376;BME280;51976;47.332;9.404;2022-10-30T06:27:29;93361.19;;;18.68;52.87
65376;BME280;51976;47.332;9.404;2022-10-30T06:29:54;93367.78;;;18.67;52.83
65376;BME280;51976;47.332;9.404;2022-10-30T06:32:20;93369.38;;;18.68;52.82
65376;BME280;51976;47.332;9.404;2022-10-30T06:34:46;93369.38;;;18.68;52.71
65376;BME280;51976;47.332;9.404;2022-10-30T06:37:11;93364.72;;;18.68;52.98
65376;BME280;51976;47.332;9.404;2022-10-30T06:39:37;93365.84;;;18.67;52.75
65376;BME280;51976;47.332;9.404;2022-10-30T06:42:02;93380.31;;;18.68;52.75
65376;BME280;51976;47.332;9.404;2022-10-30T06:44:28;93374.03;;;18.67;53.00
65376;BME280;51976;47.332;9.404;2022-10-30T06:46:53;93363.91;;;18.68;52.91
65376;BME280;51976;47.332;9.404;2022-10-30T06:49:19;93365.03;;;18.67;52.72
65376;BME280;51976;47.332;9.404;2022-10-30T06:51:45;93363.13;;;18.67;52.69
65376;BME280;51976;47.332;9.404;2022-10-30T06:54:11;93379.81;;;18.66;52.72
65376;BME280;51976;47.332;9.404;2022-10-30T06:56:37;93375.97;;;18.67;52.70
65376;BME280;51976;47.332;9.404;2022-10-30T06:59:02;93371.31;;;18.67;52.94
65376;BME280;51976;47.332;9.404;2022-10-30T07:01:27;93368.59;;;18.67;52.72
65376;BME280;51976;47.332;9.404;2022-10-30T07:03:53;93365.53;;;18.69;52.68
65376;BME280;51976;47.332;9.404;2022-10-30T07:06:18;93374.03;;;18.67;52.76
65376;BME280;51976;47.332;9.404;2022-10-30T07:08:45;93367.28;;;18.65;52.63
65376;BME280;51976;47.332;9.404;2022-10-30T07:11:11;93365.03;;;18.67;53.03
65376;BME280;51976;47.332;9.404;2022-10-30T07:13:36;93365.84;;;18.67;52.91
65376;BME280;51976;47.332;9.404;2022-10-30T07:16:01;93366.66;;;18.68;52.96
65376;BME280;51976;47.332;9.404;2022-10-30T07:18:27;93371.00;;;18.69;52.85
65376;BME280;51976;47.332;9.404;2022-10-30T07:20:55;93364.72;;;18.68;52.81
65376;BME280;51976;47.332;9.404;2022-10-30T07:23:21;93367.78;;;18.67;52.73
65376;BME280;51976;47.332;9.404;2022-10-30T07:25:47;93367.78;;;18.67;52.59
65376;BME280;51976;47.332;9.404;2022-10-30T07:28:12;93374.34;;;18.66;53.01
65376;BME280;51976;47.332;9.404;2022-10-30T07:30:37;93360.69;;;18.66;52.85
65376;BME280;51976;47.332;9.404;2022-10-30T07:33:05;93366.16;;;18.66;52.67
65376;BME280;51976;47.332;9.404;2022-10-30T07:35:31;93367.78;;;18.67;52.58
65376;BME280;51976;47.332;9.404;2022-10-30T07:38:04;93361.34;;;18.63;52.79
65376;BME280;51976;47.332;9.404;2022-10-30T07:40:31;93368.91;;;18.66;52.91
65376;BME280;51976;47.332;9.404;2022-10-30T07:42:58;93365.38;;;18.65;52.92
65376;BME280;51976;47.332;9.404;2022-10-30T07:45:24;93364.56;;;18.65;53.00
65376;BME280;51976;47.332;9.404;2022-10-30T07:47:49;93368.91;;;18.66;52.84
65376;BME280;51976;47.332;9.404;2022-10-30T07:50:14;93363.44;;;18.66;52.84
65376;BME280;51976;47.332;9.404;2022-10-30T07:52:40;93354.75;;;18.64;52.80
65376;BME280;51976;47.332;9.404;2022-10-30T07:55:05;93360.22;;;18.64;52.78
65376;BME280;51976;47.332;9.404;2022-10-30T07:57:35;93363.44;;;18.66;52.61
65376;BME280;51976;47.332;9.404;2022-10-30T08:00:06;93366.16;;;18.66;52.75
65376;BME280;51976;47.332;9.404;2022-10-30T08:02:32;93350.41;;;18.63;52.82
65376;BME280;51976;47.332;9.404;2022-10-30T08:04:57;93365.03;;;18.67;52.88
65376;BME280;51976;47.332;9.404;2022-10-30T08:07:23;93369.69;;;18.66;52.76
65376;BME280;51976;47.332;9.404;2022-10-30T08:09:48;93365.38;;;18.65;52.86
65376;BME280;51976;47.332;9.404;2022-10-30T08:12:14;93366.16;;;18.66;52.90
65376;BME280;51976;47.332;9.404;2022-10-30T08:14:39;93374.34;;;18.66;52.88
65376;BME280;51976;47.332;9.404;2022-10-30T08:17:05;93366.16;;;18.66;52.98
65376;BME280;51976;47.332;9.404;2022-10-30T08:19:32;93355.06;;;18.62;52.99
65376;BME280;51976;47.332;9.404;2022-10-30T08:21:57;93366.16;;;18.66;52.72
65376;BME280;51976;47.332;9.404;2022-10-30T08:24:23;93372.44;;;18.66;52.58
65376;BME280;51976;47.332;9.404;2022-10-30T08:26:52;93368.09;;;18.65;52.90
65376;BME280;51976;47.332;9.404;2022-10-30T08:29:17;93364.25;;;18.66;52.70
65376;BME280;51976;47.332;9.404;2022-10-30T08:31:43;93367.78;;;18.67;52.93
65376;BME280;51976;47.332;9.404;2022-10-30T08:34:08;93365.03;;;18.67;52.64
65376;BME280;51976;47.332;9.404;2022-10-30T08:36:34;93357.66;;;18.67;52.84
65376;BME280;51976;47.332;9.404;2022-10-30T08:38:59;93356.84;;;18.67;52.71
65376;BME280;51976;47.332;9.404;2022-10-30T08:41:24;93357.66;;;18.67;52.78
65376;BME280;51976;47.332;9.404;2022-10-30T08:43:50;93356.84;;;18.67;52.89
65376;BME280;51976;47.332;9.404;2022-10-30T08:46:15;93358.47;;;18.68;52.73
65376;BME280;51976;47.332;9.404;2022-10-30T08:48:41;93358.78;;;18.66;53.26
65376;BME280;51976;47.332;9.404;2022-10-30T08:51:06;93358.47;;;18.68;52.96
65376;BME280;51976;47.332;9.404;2022-10-30T08:53:31;93363.13;;;18.67;52.67
65376;BME280;51976;47.332;9.404;2022-10-30T08:55:57;93353.00;;;18.68;52.63
65376;BME280;51976;47.332;9.404;2022-10-30T08:58:22;93354.59;;;18.69;52.78
65376;BME280;51976;47.332;9.404;2022-10-30T09:00:48;93357.66;;;18.67;52.89
65376;BME280;51976;47.332;9.404;2022-10-30T09:03:13;93359.25;;;18.68;52.98
65376;BME280;51976;47.332;9.404;2022-10-30T09:05:39;93357.34;;;18.69;52.99
65376;BME280;51976;47.332;9.404;2022-10-30T09:08:04;93356.22;;;18.70;52.84
65376;BME280;51976;47.332;9.404;2022-10-30T09:10:30;93357.03;;;18.70;52.82
65376;BME280;51976;47.332;9.404;2022-10-30T09:12:57;93357.81;;;18.71;52.84
65376;BME280;51976;47.332;9.404;2022-10-30T09:15:23;93353.97;;;18.72;52.87
65376;BME280;51976;47.332;9.404;2022-10-30T09:17:56;93359.75;;;18.70;52.77
65376;BME280;51976;47.332;9.404;2022-10-30T09:20:23;93359.44;;;18.72;52.81
65376;BME280;51976;47.332;9.404;2022-10-30T09:22:48;93351.25;;;18.72;52.68
65376;BME280;51976;47.332;9.404;2022-10-30T09:25:13;93350.13;;;18.73;52.83
65376;BME280;51976;47.332;9.404;2022-10-30T09:27:39;93356.38;;;18.73;52.69
65376;BME280;51976;47.332;9.404;2022-10-30T09:30:05;93359.28;;;18.77;52.77
65376;BME280;51976;47.332;9.404;2022-10-30T09:32:30;93356.06;;;18.75;52.87
65376;BME280;51976;47.332;9.404;2022-10-30T09:34:56;93359.28;;;18.77;52.58
65376;BME280;51976;47.332;9.404;2022-10-30T09:37:21;93358.47;;;18.76;52.64
65376;BME280;51976;47.332;9.404;2022-10-30T09:39:48;93354.13;;;18.75;52.63
65376;BME280;51976;47.332;9.404;2022-10-30T09:42:41;93356.56;;;18.77;52.63
65376;BME280;51976;47.332;9.404;2022-10-30T09:45:37;93366.66;;;18.76;52.87
65376;BME280;51976;47.332;9.404;2022-10-30T09:48:33;93362.97;;;18.81;52.80
65376;BME280;51976;47.332;9.404;2022-10-30T09:54:10;93360.25;;;18.81;52.69
65376;BME280;51976;47.332;9.404;2022-10-30T09:56:43;93371.19;;;18.81;52.66
65376;BME280;51976;47.332;9.404;2022-10-30T09:59:25;93368.94;;;18.83;52.60
65376;BME280;51976;47.332;9.404;2022-10-30T10:02:03;93360.75;;;18.83;52.62
65376;BME280;51976;47.332;9.404;2022-10-30T10:04:41;93366.03;;;18.88;52.43
65376;BME280;51976;47.332;9.404;2022-10-30T10:07:20;93360.75;;;18.83;52.72
65376;BME280;51976;47.332;9.404;2022-10-30T10:09:48;93360.41;;;18.84;52.62
65376;BME280;51976;47.332;9.404;2022-10-30T10:12:33;93365.56;;;18.86;52.79
65376;BME280;51976;47.332;9.404;2022-10-30T10:15:04;93357.03;;;18.87;52.40
65376;BME280;51976;47.332;9.404;2022-10-30T10:17:35;93358.31;;;18.90;52.54
65376;BME280;51976;47.332;9.404;2022-10-30T10:20:02;93353.97;;;18.89;52.83
65376;BME280;51976;47.332;9.404;2022-10-30T10:22:39;93353.31;;;18.92;52.66
65376;BME280;51976;47.332;9.404;2022-10-30T10:25:11;93342.41;;;18.92;52.64
65376;BME280;51976;47.332;9.404;2022-10-30T10:30:48;93340.47;;;19.01;52.31
65376;BME280;51976;47.332;9.404;2022-10-30T10:33:30;93343.53;;;19.08;52.24
65376;BME280;51976;47.332;9.404;2022-10-30T10:36:15;93349.00;;;19.08;52.38
65376;BME280;51976;47.332;9.404;2022-10-30T10:39:14;93346.91;;;19.05;52.56
65376;BME280;51976;47.332;9.404;2022-10-30T10:41:57;93338.72;;;19.05;52.46
65376;BME280;51976;47.332;9.404;2022-10-30T10:44:48;93339.84;;;19.04;52.56
65376;BME280;51976;47.332;9.404;2022-10-30T10:47:35;93332.44;;;19.05;52.43
65376;BME280;51976;47.332;9.404;2022-10-30T10:50:18;93335.50;;;19.03;52.67
65376;BME280;51976;47.332;9.404;2022-10-30T10:52:55;93336.16;;;19.09;52.35
65376;BME280;51976;47.332;9.404;2022-10-30T10:55:32;93338.72;;;19.14;52.19
65376;BME280;51976;47.332;9.404;2022-10-30T10:58:07;93333.72;;;19.07;52.66
65376;BME280;51976;47.332;9.404;2022-10-30T11:00:35;93322.31;;;19.14;52.21
65376;BME280;51976;47.332;9.404;2022-10-30T11:03:13;93324.69;;;19.15;52.19
65376;BME280;51976;47.332;9.404;2022-10-30T11:05:55;93326.03;;;19.09;52.63
65376;BME280;51976;47.332;9.404;2022-10-30T11:08:27;93319.88;;;19.21;52.14
65376;BME280;51976;47.332;9.404;2022-10-30T11:11:00;93322.44;;;19.17;52.23
65376;BME280;51976;47.332;9.404;2022-10-30T11:13:29;93322.28;;;19.22;52.40
65376;BME280;51976;47.332;9.404;2022-10-30T11:16:08;93321.16;;;19.15;52.48
65376;BME280;51976;47.332;9.404;2022-10-30T11:18:39;93319.25;;;19.15;52.27
65376;BME280;51976;47.332;9.404;2022-10-30T11:21:10;93314.94;;;19.14;52.73
65376;BME280;51976;47.332;9.404;2022-10-30T11:23:45;93311.19;;;19.19;52.30
65376;BME280;51976;47.332;9.404;2022-10-30T11:26:31;93304.94;;;19.18;52.38
65376;BME280;51976;47.332;9.404;2022-10-30T11:29:11;93307.66;;;19.18;52.44
65376;BME280;51976;47.332;9.404;2022-10-30T11:31:39;93307.66;;;19.18;52.46
65376;BME280;51976;47.332;9.404;2022-10-30T11:34:33;93306.84;;;19.18;52.46
65376;BME280;51976;47.332;9.404;2022-10-30T11:36:58;93297.22;;;19.20;52.60
65376;BME280;51976;47.332;9.404;2022-10-30T11:39:29;93302.19;;;19.18;52.73
65376;BME280;51976;47.332;9.404;2022-10-30T11:41:58;93304.28;;;19.21;52.49
65376;BME280;51976;47.332;9.404;2022-10-30T11:44:34;93302.50;;;19.25;52.34
65376;BME280;51976;47.332;9.404;2022-10-30T11:47:01;93297.84;;;19.26;52.34
65376;BME280;51976;47.332;9.404;2022-10-30T11:49:36;93299.13;;;19.37;52.13
65376;BME280;51976;47.332;9.404;2022-10-30T11:52:04;93297.53;;;19.36;52.06
65376;BME280;51976;47.332;9.404;2022-10-30T11:54:35;93304.91;;;19.36;52.14
65376;BME280;51976;47.332;9.404;2022-10-30T11:57:02;93294.63;;;19.33;52.40
65376;BME280;51976;47.332;9.404;2022-10-30T11:59:29;93297.84;;;19.35;52.29
65376;BME280;51976;47.332;9.404;2022-10-30T12:02:21;93295.75;;;19.40;52.20
65376;BME280;51976;47.332;9.404;2022-10-30T12:04:48;93293.59;;;19.46;51.99
65376;BME280;51976;47.332;9.404;2022-10-30T12:07:26;93293.47;;;19.42;52.20
65376;BME280;51976;47.332;9.404;2022-10-30T12:09:54;93288.34;;;19.41;52.28
65376;BME280;51976;47.332;9.404;2022-10-30T12:12:35;93282.88;;;19.41;52.12
65376;BME280;51976;47.332;9.404;2022-10-30T12:15:25;93289.28;;;19.45;52.26
65376;BME280;51976;47.332;9.404;2022-10-30T12:17:57;93285.09;;;19.47;52.02
65376;BME280;51976;47.332;9.404;2022-10-30T12:20:24;93283.50;;;19.55;52.23
65376;BME280;51976;47.332;9.404;2022-10-30T12:22:50;93281.41;;;19.52;52.05
65376;BME280;51976;47.332;9.404;2022-10-30T12:25:27;93283.63;;;19.50;52.27
65376;BME280;51976;47.332;9.404;2022-10-30T12:28:02;93284.75;;;19.49;52.16
65376;BME280;51976;47.332;9.404;2022-10-30T12:30:33;93275.44;;;19.50;52.32
65376;BME280;51976;47.332;9.404;2022-10-30T12:33:07;93277.22;;;19.54;52.36
65376;BME280;51976;47.332;9.404;2022-10-30T12:35:47;93272.72;;;19.58;52.19
65376;BME280;51976;47.332;9.404;2022-10-30T12:38:29;93279.78;;;19.59;52.40
65376;BME280;51976;47.332;9.404;2022-10-30T12:41:21;93275.59;;;19.62;51.97
65376;BME280;51976;47.332;9.404;2022-10-30T12:44:07;93271.25;;;19.61;52.11
65376;BME280;51976;47.332;9.404;2022-10-30T12:46:42;93275.44;;;19.58;52.05
65376;BME280;51976;47.332;9.404;2022-10-30T12:49:33;93268.69;;;19.56;52.08
65376;BME280;51976;47.332;9.404;2022-10-30T12:52:34;93267.09;;;19.55;52.25
65376;BME280;51976;47.332;9.404;2022-10-30T12:55:23;93267.88;;;19.55;52.50
65376;BME280;51976;47.332;9.404;2022-10-30T12:58:17;93264.81;;;19.57;52.26
65376;BME280;51976;47.332;9.404;2022-10-30T13:04:09;93256.13;;;19.64;52.36
65376;BME280;51976;47.332;9.404;2022-10-30T13:06:48;93257.72;;;19.65;52.45
65376;BME280;51976;47.332;9.404;2022-10-30T13:09:26;93256.91;;;19.64;52.23
65376;BME280;51976;47.332;9.404;2022-10-30T13:12:15;93255.78;;;19.65;52.40
65376;BME280;51976;47.332;9.404;2022-10-30T13:14:48;93252.25;;;19.65;52.39
65376;BME280;51976;47.332;9.404;2022-10-30T13:17:15;93251.59;;;19.68;52.20
65376;BME280;51976;47.332;9.404;2022-10-30T13:19:43;93259.34;;;19.66;52.34
65376;BME280;51976;47.332;9.404;2022-10-30T13:22:38;93255.78;;;19.65;52.26
65376;BME280;51976;47.332;9.404;2022-10-30T13:25:16;93256.28;;;19.58;52.44